Time;durP1;ratioP1;P1;durP2;ratioP2;P2;SDS_P1;SDS_P2;PMS_P1;PMS_P2;Temp;Humidity;BMP_temperature;BMP_pressure;BME280_temperature;BME280_humidity;BME280_pressure;Samples;Min_cycle;Max_cycle;Signal;HPM_P1;HPM_P2
2022/08/31 00:06:01;;;;;;;2.00;1.80;;;19.20;99.90;;;;;;5052306;28;20813;-43
2022/08/31 00:08:28;;;;;;;2.60;2.40;;;19.10;99.90;;;;;;5051115;28;20455;-44
2022/08/31 00:10:54;;;;;;;3.17;2.80;;;19.00;99.90;;;;;;5052209;28;20462;-43
2022/08/31 00:13:21;;;;;;;5.77;2.37;;;18.90;99.90;;;;;;5051043;28;20459;-45
2022/08/31 00:15:48;;;;;;;2.67;2.30;;;19.00;99.90;;;;;;5052093;28;20186;-45
2022/08/31 00:18:14;;;;;;;3.00;2.33;;;19.00;99.90;;;;;;5051566;28;20772;-48
2022/08/31 00:20:41;;;;;;;2.37;2.00;;;19.00;99.90;;;;;;5063690;28;20421;-44
2022/08/31 00:23:09;;;;;;;3.63;2.10;;;19.00;99.90;;;;;;5051955;28;20428;-46
2022/08/31 00:25:36;;;;;;;4.00;2.10;;;19.00;99.90;;;;;;5051750;28;20424;-44
2022/08/31 00:28:04;;;;;;;5.00;1.90;;;19.00;99.90;;;;;;5051360;28;20428;-47
2022/08/31 00:30:30;;;;;;;2.57;2.20;;;19.00;99.90;;;;;;5051607;28;20460;-48
2022/08/31 00:32:56;;;;;;;2.93;1.97;;;19.00;99.90;;;;;;5051641;28;20507;-45
2022/08/31 00:35:22;;;;;;;2.20;2.10;;;18.90;99.90;;;;;;5051384;28;20420;-45
2022/08/31 00:37:48;;;;;;;2.60;2.00;;;18.90;99.90;;;;;;5051032;28;20420;-44
2022/08/31 00:40:13;;;;;;;1.90;1.70;;;18.90;99.90;;;;;;5051581;28;20564;-48
2022/08/31 00:42:40;;;;;;;2.33;1.80;;;19.00;99.90;;;;;;5051708;28;20200;-43
2022/08/31 00:45:06;;;;;;;4.07;2.07;;;19.00;99.90;;;;;;5051600;28;20197;-47
2022/08/31 00:47:32;;;;;;;2.20;1.73;;;19.00;99.90;;;;;;5051047;28;20473;-48
2022/08/31 00:49:59;;;;;;;3.13;2.10;;;18.90;99.90;;;;;;5050994;28;21005;-47
2022/08/31 00:52:34;;;;;;;2.07;1.83;;;18.90;99.90;;;;;;5051620;28;20641;-45
2022/08/31 00:55:06;;;;;;;2.53;1.80;;;18.90;99.90;;;;;;5051262;28;20435;-45
2022/08/31 00:57:36;;;;;;;3.00;1.87;;;18.90;99.90;;;;;;5049290;28;20431;-44
2022/08/31 01:00:08;;;;;;;1.93;1.73;;;18.80;99.90;;;;;;5051315;28;20834;-50
2022/08/31 01:02:34;;;;;;;2.20;2.00;;;18.80;99.90;;;;;;5050900;28;20776;-47
2022/08/31 01:04:59;;;;;;;1.83;1.73;;;18.80;99.90;;;;;;5051200;28;20428;-48
2022/08/31 01:07:26;;;;;;;3.40;1.67;;;18.80;99.90;;;;;;5050663;28;20200;-45
2022/08/31 01:09:52;;;;;;;1.90;1.60;;;18.90;99.90;;;;;;5051216;28;20220;-44
2022/08/31 01:12:18;;;;;;;1.60;1.40;;;18.90;99.90;;;;;;5050335;28;20421;-45
2022/08/31 01:14:43;;;;;;;3.70;1.70;;;18.90;99.90;;;;;;5051052;28;20424;-46
2022/08/31 01:17:09;;;;;;;1.80;1.50;;;18.90;99.90;;;;;;5049894;28;20652;-43
2022/08/31 01:19:56;;;;;;;1.60;1.50;;;18.90;99.90;;;;;;5058082;28;20181;-45
2022/08/31 01:22:43;;;;;;;2.17;1.90;;;18.90;99.90;;;;;;5051569;28;20433;-47
2022/08/31 01:25:10;;;;;;;6.13;1.77;;;18.90;99.90;;;;;;5050911;28;20420;-44
2022/08/31 01:27:37;;;;;;;2.80;1.43;;;18.90;99.90;;;;;;5049834;28;20992;-48
2022/08/31 01:30:09;;;;;;;3.83;1.60;;;18.80;99.90;;;;;;5050644;28;20467;-48
2022/08/31 01:32:35;;;;;;;1.73;1.63;;;18.90;99.90;;;;;;5050758;28;20434;-45
2022/08/31 01:35:01;;;;;;;1.67;1.57;;;18.80;99.90;;;;;;5050592;28;20420;-47
2022/08/31 01:37:28;;;;;;;2.47;1.57;;;18.80;99.90;;;;;;5049893;28;20415;-45
2022/08/31 01:39:53;;;;;;;2.03;1.67;;;18.80;99.90;;;;;;5050481;28;20189;-45
2022/08/31 01:42:19;;;;;;;1.80;1.70;;;18.80;99.90;;;;;;5050203;28;20447;-44
2022/08/31 01:44:45;;;;;;;3.07;1.60;;;18.80;99.90;;;;;;5050439;28;20211;-46
2022/08/31 01:47:11;;;;;;;2.10;1.90;;;18.80;99.90;;;;;;5049781;28;20221;-47
2022/08/31 01:49:36;;;;;;;2.20;1.50;;;18.80;99.90;;;;;;5050332;28;20213;-43
2022/08/31 01:52:04;;;;;;;1.60;1.50;;;18.80;99.90;;;;;;5050300;28;20276;-45
2022/08/31 01:54:29;;;;;;;2.37;1.30;;;18.80;99.90;;;;;;5048876;28;20239;-45
2022/08/31 01:56:56;;;;;;;1.60;1.50;;;18.80;99.90;;;;;;5048059;28;20429;-46
2022/08/31 01:59:22;;;;;;;2.30;2.03;;;18.80;99.90;;;;;;5050246;28;20205;-43
2022/08/31 02:01:51;;;;;;;1.80;1.50;;;18.70;99.90;;;;;;5050162;28;20420;-46
2022/08/31 02:04:19;;;;;;;2.60;1.97;;;18.70;99.90;;;;;;5050079;28;20442;-47
2022/08/31 02:06:47;;;;;;;1.80;1.50;;;18.70;99.90;;;;;;5049440;28;20436;-45
2022/08/31 02:09:14;;;;;;;2.70;1.47;;;18.70;99.90;;;;;;5049553;28;20452;-44
2022/08/31 02:11:40;;;;;;;2.37;1.80;;;18.70;99.90;;;;;;5050081;28;20499;-43
2022/08/31 02:14:07;;;;;;;2.10;1.90;;;18.70;99.90;;;;;;5049926;28;20821;-47
2022/08/31 02:16:33;;;;;;;2.43;1.53;;;18.60;99.90;;;;;;5049636;28;20420;-44
2022/08/31 02:18:59;;;;;;;1.90;1.80;;;18.60;99.90;;;;;;5051641;28;21101;-47
2022/08/31 02:21:25;;;;;;;4.93;1.87;;;18.60;99.90;;;;;;5059712;28;21085;-45
2022/08/31 02:23:51;;;;;;;2.30;1.73;;;18.70;99.90;;;;;;5048551;28;20431;-42
2022/08/31 02:26:17;;;;;;;2.50;2.00;;;18.60;99.90;;;;;;5050170;28;20194;-46
2022/08/31 02:28:43;;;;;;;4.77;1.90;;;18.50;99.90;;;;;;5048992;28;20220;-47
2022/08/31 02:31:09;;;;;;;2.87;1.70;;;18.50;99.90;;;;;;5049718;28;20451;-47
2022/08/31 02:33:34;;;;;;;2.10;1.70;;;18.60;99.90;;;;;;5049588;28;20448;-44
2022/08/31 02:36:00;;;;;;;2.30;1.70;;;18.50;99.90;;;;;;5048610;28;20182;-44
2022/08/31 02:38:26;;;;;;;2.53;1.77;;;18.50;99.90;;;;;;5047316;28;20273;-43
2022/08/31 02:40:52;;;;;;;4.10;1.70;;;18.50;99.90;;;;;;5049614;28;20455;-45
2022/08/31 02:43:18;;;;;;;2.57;1.90;;;18.50;99.90;;;;;;5049416;28;20825;-44
2022/08/31 02:45:44;;;;;;;2.13;1.50;;;18.50;99.90;;;;;;5048348;28;20430;-44
2022/08/31 02:48:10;;;;;;;1.60;1.50;;;18.50;99.90;;;;;;5048800;28;20236;-48
2022/08/31 02:50:45;;;;;;;2.07;1.83;;;18.50;99.90;;;;;;5049022;28;20940;-44
2022/08/31 02:53:13;;;;;;;5.20;2.00;;;18.50;99.90;;;;;;5049332;28;20481;-41
2022/08/31 02:55:39;;;;;;;1.73;1.50;;;18.40;99.90;;;;;;5049253;28;20427;-46
2022/08/31 02:58:05;;;;;;;1.70;1.60;;;18.40;99.90;;;;;;5047481;28;20432;-43
2022/08/31 03:00:32;;;;;;;2.23;1.67;;;18.30;99.90;;;;;;5049357;28;20474;-43
2022/08/31 03:02:58;;;;;;;1.57;1.47;;;18.30;99.90;;;;;;5049374;28;20432;-44
2022/08/31 03:05:24;;;;;;;2.00;1.90;;;18.20;99.90;;;;;;5049091;28;20788;-47
2022/08/31 03:07:50;;;;;;;2.17;1.97;;;18.10;99.90;;;;;;5048601;28;20303;-42
2022/08/31 03:10:19;;;;;;;2.37;2.10;;;18.20;99.90;;;;;;5049363;28;21011;-50
2022/08/31 03:12:49;;;;;;;3.80;1.67;;;18.10;99.90;;;;;;5049138;28;20182;-41
2022/08/31 03:15:16;;;;;;;3.10;1.60;;;18.20;99.90;;;;;;5047889;28;20459;-46
2022/08/31 03:17:42;;;;;;;2.07;1.60;;;18.20;99.90;;;;;;5048504;28;20420;-48
2022/08/31 03:20:09;;;;;;;3.83;1.93;;;18.20;99.90;;;;;;5058957;28;20514;-45
2022/08/31 03:22:35;;;;;;;1.97;1.60;;;18.30;99.90;;;;;;5049008;28;20219;-43
2022/08/31 03:25:01;;;;;;;1.80;1.40;;;18.30;99.90;;;;;;5049146;28;20533;-45
2022/08/31 03:27:30;;;;;;;2.10;1.60;;;18.20;99.90;;;;;;5048463;28;20185;-44
2022/08/31 03:29:57;;;;;;;1.50;1.40;;;18.20;99.90;;;;;;5048829;28;20456;-47
2022/08/31 03:32:22;;;;;;;2.30;1.60;;;18.10;99.90;;;;;;5049000;28;20454;-48
2022/08/31 03:34:55;;;;;;;1.70;1.60;;;18.10;99.90;;;;;;5050742;28;20458;-44
2022/08/31 03:37:21;;;;;;;2.03;1.70;;;18.10;99.90;;;;;;5052410;28;20547;-46
2022/08/31 03:39:47;;;;;;;2.73;1.50;;;18.10;99.90;;;;;;5052807;28;20447;-42
2022/08/31 03:42:13;;;;;;;1.50;1.40;;;18.00;99.90;;;;;;5052691;28;20235;-47
2022/08/31 03:44:39;;;;;;;2.00;1.80;;;18.00;99.90;;;;;;5052529;28;20460;-45
2022/08/31 03:47:04;;;;;;;1.37;1.27;;;18.00;99.90;;;;;;5051637;28;20385;-46
2022/08/31 03:49:30;;;;;;;1.80;1.20;;;18.00;99.90;;;;;;5052552;28;20225;-48
2022/08/31 03:51:56;;;;;;;1.57;1.47;;;18.00;99.90;;;;;;5052295;28;20515;-47
2022/08/31 03:54:22;;;;;;;2.17;1.83;;;18.00;99.90;;;;;;5052596;28;20519;-41
2022/08/31 03:56:48;;;;;;;2.43;1.40;;;18.00;99.90;;;;;;5050138;28;20919;-45
2022/08/31 03:59:14;;;;;;;1.73;1.53;;;18.00;99.90;;;;;;5052243;28;20427;-43
2022/08/31 04:01:39;;;;;;;1.37;1.27;;;18.00;99.90;;;;;;5052031;28;20224;-47
2022/08/31 04:04:05;;;;;;;1.60;1.50;;;18.00;99.90;;;;;;5046862;28;20245;-46
2022/08/31 04:06:31;;;;;;;1.40;1.30;;;18.00;99.90;;;;;;5051739;28;20205;-42
2022/08/31 04:08:57;;;;;;;3.23;1.40;;;18.00;99.90;;;;;;5051857;28;20201;-47
2022/08/31 04:11:23;;;;;;;1.40;1.30;;;18.00;99.90;;;;;;5052190;28;20435;-47
2022/08/31 04:13:49;;;;;;;1.90;1.70;;;18.00;99.90;;;;;;5051950;28;20698;-44
2022/08/31 04:16:19;;;;;;;1.60;1.50;;;17.90;99.90;;;;;;5050505;28;20424;-47
2022/08/31 04:18:46;;;;;;;1.67;1.50;;;17.90;99.90;;;;;;5051327;28;20189;-48
2022/08/31 04:21:19;;;;;;;3.83;1.43;;;18.00;99.90;;;;;;5063421;28;20485;-47
2022/08/31 04:23:45;;;;;;;1.40;1.30;;;18.00;99.90;;;;;;5051935;28;20447;-48
2022/08/31 04:26:21;;;;;;;1.80;1.40;;;18.00;99.90;;;;;;5052071;28;20420;-45
2022/08/31 04:28:47;;;;;;;4.23;1.70;;;17.90;99.90;;;;;;5050794;28;20461;-45
2022/08/31 04:31:14;;;;;;;2.60;1.80;;;17.90;99.90;;;;;;5051805;28;20507;-47
2022/08/31 04:33:40;;;;;;;2.57;1.70;;;17.90;99.90;;;;;;5051783;28;20451;-42
2022/08/31 04:36:08;;;;;;;1.87;1.77;;;17.80;99.90;;;;;;5051744;28;20428;-46
2022/08/31 04:38:35;;;;;;;2.17;1.63;;;17.70;99.90;;;;;;5050863;28;20431;-45
2022/08/31 04:41:09;;;;;;;2.93;2.00;;;17.60;99.90;;;;;;5049114;28;20428;-45
2022/08/31 04:43:36;;;;;;;2.80;1.63;;;17.60;99.90;;;;;;5043204;28;20446;-47
2022/08/31 04:46:06;;;;;;;2.20;2.00;;;17.50;99.90;;;;;;5050023;28;20518;-49
2022/08/31 04:48:32;;;;;;;3.37;2.10;;;17.40;99.90;;;;;;5046099;28;20470;-48
2022/08/31 04:51:07;;;;;;;2.73;1.97;;;17.40;99.90;;;;;;5049977;28;20436;-49
2022/08/31 04:53:35;;;;;;;2.50;1.83;;;17.40;99.90;;;;;;5039125;28;20418;-44
2022/08/31 04:56:13;;;;;;;2.90;1.80;;;17.40;99.90;;;;;;5049516;28;20412;-45
2022/08/31 04:58:39;;;;;;;2.10;2.00;;;17.30;99.90;;;;;;5050536;28;20478;-44
2022/08/31 05:01:14;;;;;;;3.10;2.33;;;17.40;99.90;;;;;;5050705;28;20443;-48
2022/08/31 05:03:40;;;;;;;2.40;2.20;;;17.30;99.90;;;;;;5049653;28;20416;-46
2022/08/31 05:06:10;;;;;;;3.20;2.23;;;17.20;99.90;;;;;;5051103;28;20444;-45
2022/08/31 05:08:36;;;;;;;2.17;1.93;;;17.30;99.90;;;;;;5050163;28;20424;-45
2022/08/31 05:11:10;;;;;;;2.27;2.07;;;17.20;99.90;;;;;;5051277;28;20523;-47
2022/08/31 05:13:36;;;;;;;4.10;1.73;;;17.30;99.90;;;;;;5043699;28;21215;-43
2022/08/31 05:16:04;;;;;;;3.10;2.00;;;17.30;99.90;;;;;;5050745;28;20424;-47
2022/08/31 05:18:30;;;;;;;3.23;1.97;;;17.20;99.90;;;;;;5050250;28;20408;-45
2022/08/31 05:20:56;;;;;;;2.27;2.03;;;17.20;99.90;;;;;;5062485;28;21007;-43
2022/08/31 05:23:22;;;;;;;4.90;2.80;;;17.30;99.90;;;;;;5050964;28;20182;-44
2022/08/31 05:25:48;;;;;;;3.10;1.80;;;17.30;99.90;;;;;;5050816;28;20431;-47
2022/08/31 05:28:15;;;;;;;6.03;3.10;;;17.30;99.90;;;;;;5048463;28;20219;-43
2022/08/31 05:30:44;;;;;;;3.67;2.43;;;17.30;99.90;;;;;;5056867;28;20200;-42
2022/08/31 05:33:09;;;;;;;6.03;2.83;;;17.20;99.90;;;;;;5062903;28;20478;-45
2022/08/31 05:35:36;;;;;;;3.97;2.60;;;17.20;99.90;;;;;;5029129;28;20433;-43
2022/08/31 05:38:02;;;;;;;5.03;2.80;;;17.00;99.90;;;;;;5045847;28;20193;-46
2022/08/31 05:40:28;;;;;;;3.60;2.10;;;17.00;99.90;;;;;;5050302;28;20943;-43
2022/08/31 05:42:55;;;;;;;4.00;2.13;;;17.00;99.90;;;;;;5050584;28;20431;-44
2022/08/31 05:45:20;;;;;;;2.63;2.43;;;17.10;99.90;;;;;;5052494;28;20191;-46
2022/08/31 05:47:46;;;;;;;3.53;2.50;;;17.10;99.90;;;;;;5048315;28;20511;-50
2022/08/31 05:50:12;;;;;;;2.07;1.87;;;17.20;99.90;;;;;;5048748;28;20221;-43
2022/08/31 05:52:37;;;;;;;5.10;2.50;;;17.20;99.90;;;;;;5040302;28;20181;-45
2022/08/31 05:55:04;;;;;;;3.50;2.63;;;17.20;99.90;;;;;;5049750;28;20201;-42
2022/08/31 05:57:29;;;;;;;2.57;2.37;;;17.20;99.90;;;;;;5047863;28;20676;-46
2022/08/31 05:59:55;;;;;;;2.83;2.40;;;17.10;99.90;;;;;;5050195;28;20444;-44
2022/08/31 06:02:21;;;;;;;9.60;3.30;;;17.00;99.90;;;;;;5049814;28;20649;-42
2022/08/31 06:04:47;;;;;;;3.33;2.90;;;17.10;99.90;;;;;;5056417;28;20272;-43
2022/08/31 06:07:12;;;;;;;3.13;2.60;;;17.10;99.90;;;;;;5069446;28;20539;-47
2022/08/31 06:09:38;;;;;;;3.20;2.23;;;17.20;99.90;;;;;;5069730;28;20471;-46
2022/08/31 06:12:04;;;;;;;5.20;2.47;;;17.30;99.90;;;;;;5062114;28;20223;-44
2022/08/31 06:14:31;;;;;;;6.50;2.93;;;17.40;99.90;;;;;;5051369;28;20174;-46
2022/08/31 06:16:58;;;;;;;3.90;2.03;;;17.50;99.90;;;;;;5048816;28;20420;-46
2022/08/31 06:19:24;;;;;;;3.23;2.07;;;17.60;99.90;;;;;;5057680;28;20432;-45
2022/08/31 06:21:50;;;;;;;3.50;2.60;;;17.70;99.90;;;;;;5049984;28;20474;-47
2022/08/31 06:24:17;;;;;;;2.30;2.10;;;17.80;99.90;;;;;;5069621;28;20196;-42
2022/08/31 06:26:54;;;;;;;5.13;2.90;;;17.80;99.90;;;;;;5064105;28;20795;-48
2022/08/31 06:29:20;;;;;;;2.87;2.30;;;17.90;99.90;;;;;;5044475;28;20455;-47
2022/08/31 06:31:46;;;;;;;3.30;2.60;;;17.90;99.90;;;;;;5063764;28;20418;-49
2022/08/31 06:34:14;;;;;;;4.03;2.70;;;18.00;99.90;;;;;;5069961;28;20419;-49
2022/08/31 06:36:40;;;;;;;3.57;3.10;;;18.00;99.90;;;;;;5069195;28;20521;-44
2022/08/31 06:39:06;;;;;;;4.47;2.90;;;18.10;99.90;;;;;;5069688;28;20430;-47
2022/08/31 06:41:34;;;;;;;4.17;2.90;;;18.10;99.90;;;;;;5067145;28;20188;-45
2022/08/31 06:44:01;;;;;;;3.00;2.70;;;18.20;99.90;;;;;;5049114;28;20193;-48
2022/08/31 06:46:28;;;;;;;3.17;2.47;;;18.40;99.90;;;;;;5051260;28;20420;-46
2022/08/31 06:48:56;;;;;;;5.00;3.00;;;18.50;99.90;;;;;;5048343;28;20455;-44
2022/08/31 06:51:23;;;;;;;4.77;2.60;;;18.60;99.90;;;;;;5048079;28;20420;-46
2022/08/31 06:53:50;;;;;;;3.30;2.57;;;18.60;99.90;;;;;;5049478;28;20415;-49
2022/08/31 06:56:18;;;;;;;3.90;2.77;;;18.60;99.90;;;;;;5047956;28;20911;-45
2022/08/31 06:58:44;;;;;;;3.00;2.80;;;18.70;99.90;;;;;;5048553;28;20533;-46
2022/08/31 07:01:16;;;;;;;3.40;2.50;;;18.70;99.90;;;;;;5049583;28;21360;-47
2022/08/31 07:03:44;;;;;;;3.13;2.50;;;18.80;99.90;;;;;;5049375;28;20622;-41
2022/08/31 07:06:15;;;;;;;2.60;2.30;;;18.80;99.90;;;;;;5047969;28;20444;-45
2022/08/31 07:08:43;;;;;;;5.07;3.30;;;18.80;99.90;;;;;;5061483;28;20426;-46
2022/08/31 07:11:19;;;;;;;3.20;2.53;;;18.90;99.90;;;;;;5073272;28;20419;-47
2022/08/31 07:13:46;;;;;;;5.77;2.80;;;18.90;99.90;;;;;;5073171;28;20412;-44
2022/08/31 07:16:14;;;;;;;7.70;3.37;;;18.80;99.90;;;;;;5073584;28;20777;-49
2022/08/31 07:18:41;;;;;;;3.30;2.70;;;18.80;99.90;;;;;;5072544;28;20531;-45
2022/08/31 07:21:12;;;;;;;6.03;3.57;;;18.80;99.90;;;;;;5065307;28;20424;-46
2022/08/31 07:23:38;;;;;;;4.10;2.80;;;18.80;99.90;;;;;;5052799;28;20778;-47
2022/08/31 07:26:06;;;;;;;3.60;3.00;;;18.70;99.90;;;;;;5053357;28;20439;-43
2022/08/31 07:28:32;;;;;;;4.30;3.07;;;18.70;99.90;;;;;;5052412;28;20428;-42
2022/08/31 07:31:02;;;;;;;2.67;2.47;;;18.90;99.90;;;;;;5053237;28;20430;-43
2022/08/31 07:33:37;;;;;;;4.80;2.60;;;19.00;99.90;;;;;;5052684;28;20505;-50
2022/08/31 07:36:09;;;;;;;5.10;3.10;;;19.20;99.90;;;;;;5053599;28;20505;-45
2022/08/31 07:44:05;;;;;;;3.70;2.70;;;19.50;99.90;;;;;;5052779;28;20465;-48
2022/08/31 07:46:30;;;;;;;2.93;2.60;;;19.50;99.90;;;;;;5052675;28;20531;-46
2022/08/31 07:48:57;;;;;;;3.30;3.00;;;19.60;99.90;;;;;;5051769;28;20842;-43
2022/08/31 07:51:24;;;;;;;2.83;2.37;;;19.70;99.90;;;;;;5052706;28;20178;-46
2022/08/31 07:53:51;;;;;;;4.20;2.80;;;19.70;99.90;;;;;;5052654;28;20460;-46
2022/08/31 07:56:18;;;;;;;4.83;3.10;;;19.80;99.90;;;;;;5051242;28;20822;-46
2022/08/31 07:58:46;;;;;;;3.27;2.77;;;19.90;99.90;;;;;;5051862;28;20948;-44
2022/08/31 08:01:13;;;;;;;5.00;3.00;;;19.90;99.90;;;;;;5051076;28;20507;-43
2022/08/31 08:03:42;;;;;;;2.83;2.63;;;19.90;99.90;;;;;;5052286;28;20416;-46
2022/08/31 08:06:14;;;;;;;4.00;2.97;;;19.90;99.90;;;;;;5052216;28;20436;-49
2022/08/31 08:08:43;;;;;;;4.47;3.40;;;19.90;99.90;;;;;;5051696;28;20428;-48
2022/08/31 08:11:20;;;;;;;3.90;3.57;;;19.80;99.90;;;;;;5052109;28;20420;-43
2022/08/31 08:13:47;;;;;;;4.83;3.10;;;19.80;99.90;;;;;;5051933;28;20488;-47
2022/08/31 08:16:13;;;;;;;3.13;2.83;;;19.70;99.90;;;;;;5051033;28;20513;-49
2022/08/31 08:18:38;;;;;;;3.30;2.73;;;19.60;99.90;;;;;;5051455;28;20466;-47
2022/08/31 08:21:05;;;;;;;3.17;2.70;;;19.60;99.90;;;;;;5063171;28;20423;-45
2022/08/31 08:23:31;;;;;;;3.00;2.73;;;19.60;99.90;;;;;;5052090;28;20189;-45
2022/08/31 08:26:00;;;;;;;3.03;2.83;;;19.60;99.90;;;;;;5050654;28;20432;-47
2022/08/31 08:28:30;;;;;;;4.30;2.87;;;19.60;99.90;;;;;;5049712;28;20470;-48
2022/08/31 08:31:00;;;;;;;4.97;3.10;;;19.70;99.90;;;;;;5051918;28;20509;-46
2022/08/31 08:33:29;;;;;;;3.37;2.80;;;19.80;99.90;;;;;;5051835;28;20416;-42
2022/08/31 08:36:01;;;;;;;5.63;3.20;;;19.90;99.90;;;;;;5051831;28;20412;-43
2022/08/31 08:38:32;;;;;;;4.10;3.20;;;19.90;99.90;;;;;;5051138;28;20419;-46
2022/08/31 08:41:00;;;;;;;5.03;2.90;;;20.00;99.90;;;;;;5051497;28;20546;-48
2022/08/31 08:43:35;;;;;;;5.60;3.40;;;20.10;99.90;;;;;;5050416;28;20428;-45
2022/08/31 08:46:04;;;;;;;4.53;3.00;;;20.10;99.90;;;;;;5051818;28;20412;-42
2022/08/31 08:48:36;;;;;;;3.30;2.73;;;20.20;99.90;;;;;;5050150;28;20438;-45
2022/08/31 08:51:09;;;;;;;3.77;3.47;;;20.30;99.90;;;;;;5050552;28;20432;-42
2022/08/31 08:53:37;;;;;;;3.47;3.17;;;20.30;99.90;;;;;;5048687;28;20431;-45
2022/08/31 08:56:03;;;;;;;3.70;3.20;;;20.40;99.90;;;;;;5049160;28;20529;-47
2022/08/31 08:58:31;;;;;;;4.40;4.00;;;20.30;99.90;;;;;;5048135;28;20871;-49
2022/08/31 09:00:59;;;;;;;4.00;3.03;;;20.30;99.90;;;;;;5050374;28;20757;-44
2022/08/31 09:03:51;;;;;;;4.60;3.37;;;20.20;99.90;;;;;;5049859;28;20466;-49
2022/08/31 09:06:27;;;;;;;3.53;3.23;;;20.20;99.90;;;;;;5049467;28;20935;-49
2022/08/31 09:09:29;;;;;;;3.47;3.17;;;20.30;99.90;;;;;;5049109;28;20459;-46
2022/08/31 09:12:19;;;;;;;5.73;3.13;;;20.40;99.90;;;;;;5049657;28;20419;-42
2022/08/31 09:15:14;;;;;;;4.70;3.10;;;20.40;99.90;;;;;;5049799;28;20425;-44
2022/08/31 09:17:42;;;;;;;7.23;3.83;;;20.50;99.90;;;;;;5049128;28;20503;-44
2022/08/31 09:20:11;;;;;;;9.60;4.63;;;20.60;99.90;;;;;;5049512;28;20682;-44
2022/08/31 09:22:49;;;;;;;4.10;3.60;;;20.60;99.90;;;;;;5049034;28;20424;-45
2022/08/31 09:25:31;;;;;;;4.40;4.00;;;20.70;99.90;;;;;;5049666;28;20420;-48
2022/08/31 09:28:06;;;;;;;4.47;4.07;;;20.90;99.90;;;;;;5048787;28;20436;-47
2022/08/31 09:30:44;;;;;;;4.80;4.40;;;21.00;99.90;;;;;;5049153;28;20493;-44
2022/08/31 09:33:22;;;;;;;3.50;3.20;;;21.10;99.90;;;;;;5049030;28;20471;-46
2022/08/31 09:35:54;;;;;;;3.43;3.13;;;21.20;99.90;;;;;;5049597;28;20913;-46
2022/08/31 09:38:39;;;;;;;5.43;3.27;;;21.30;99.90;;;;;;5048595;28;20431;-42
2022/08/31 09:41:24;;;;;;;6.63;3.70;;;21.40;99.90;;;;;;5049324;28;20424;-47
2022/08/31 09:43:50;;;;;;;5.40;3.60;;;21.50;99.90;;;;;;5051524;28;20959;-45
2022/08/31 09:46:29;;;;;;;7.63;4.00;;;21.60;99.90;;;;;;5049252;28;20443;-46
2022/08/31 09:49:01;;;;;;;4.80;3.80;;;21.70;99.90;;;;;;5048376;28;20351;-43
2022/08/31 09:51:33;;;;;;;4.50;4.10;;;21.90;99.90;;;;;;5049054;28;20420;-49
2022/08/31 09:56:55;;;;;;;4.53;4.13;;;21.90;99.90;;;;;;5047428;28;20848;-45
2022/08/31 09:59:40;;;;;;;3.73;3.43;;;22.00;99.90;;;;;;5048592;28;20915;-48
2022/08/31 10:02:36;;;;;;;5.57;4.30;;;22.10;99.90;;;;;;5048863;28;20416;-48
2022/08/31 10:05:06;;;;;;;5.83;4.17;;;22.20;99.90;;;;;;5037584;28;20492;-47
2022/08/31 10:07:44;;;;;;;3.93;3.53;;;22.20;99.90;;;;;;5048084;28;20519;-47
2022/08/31 10:10:15;;;;;;;4.57;4.17;;;22.30;99.90;;;;;;5048492;28;20456;-48
2022/08/31 10:12:50;;;;;;;4.17;3.77;;;22.40;99.90;;;;;;5048163;28;20995;-45
2022/08/31 10:15:34;;;;;;;5.03;4.17;;;22.50;99.90;;;;;;5048477;28;20506;-46
2022/08/31 10:18:31;;;;;;;7.67;5.17;;;22.60;99.90;;;;;;5048035;28;20454;-50
2022/08/31 10:21:07;;;;;;;4.00;3.70;;;22.50;99.90;;;;;;5059884;28;20435;-46
2022/08/31 10:23:40;;;;;;;5.77;5.17;;;22.60;99.90;;;;;;5047102;28;20459;-46
2022/08/31 10:26:18;;;;;;;4.77;4.23;;;22.60;99.90;;;;;;5048562;28;20432;-46
2022/08/31 10:28:50;;;;;;;4.53;3.90;;;22.60;99.90;;;;;;5047435;28;20430;-44
2022/08/31 10:31:30;;;;;;;5.03;4.43;;;22.70;99.90;;;;;;5048255;28;20562;-46
2022/08/31 10:36:58;;;;;;;5.87;3.77;;;22.90;99.90;;;;;;5047938;28;20428;-44
2022/08/31 10:39:24;;;;;;;4.80;4.13;;;22.90;99.90;;;;;;5048192;28;20432;-45
2022/08/31 10:41:50;;;;;;;8.27;3.73;;;23.00;99.90;;;;;;5047806;28;20427;-47
2022/08/31 10:44:36;;;;;;;4.30;3.90;;;23.00;99.90;;;;;;5047929;28;20243;-48
2022/08/31 10:47:04;;;;;;;4.10;3.70;;;23.10;99.90;;;;;;5047624;28;20477;-47
2022/08/31 10:49:34;;;;;;;4.43;4.07;;;23.10;99.90;;;;;;5047930;28;20799;-47
2022/08/31 10:52:20;;;;;;;4.33;3.93;;;23.00;99.90;;;;;;5048478;28;20424;-43
2022/08/31 10:55:06;;;;;;;4.40;3.97;;;23.00;99.90;;;;;;5047963;28;20428;-45
2022/08/31 10:58:03;;;;;;;6.60;4.23;;;22.90;99.90;;;;;;5046661;28;20450;-47
2022/08/31 11:00:55;;;;;;;5.13;4.20;;;22.80;99.90;;;;;;5047909;28;20420;-48
2022/08/31 11:03:50;;;;;;;4.80;3.90;;;22.70;99.90;;;;;;5047912;28;20923;-47
2022/08/31 11:06:22;;;;;;;4.40;4.00;;;22.70;99.90;;;;;;5046567;28;20455;-45
2022/08/31 11:08:57;;;;;;;3.83;3.53;;;22.70;99.90;;;;;;5046908;28;20455;-44
2022/08/31 11:11:45;;;;;;;4.93;4.23;;;22.70;99.90;;;;;;5047867;28;20419;-47
2022/08/31 11:14:20;;;;;;;4.43;4.03;;;22.70;99.90;;;;;;5047899;28;20947;-48
2022/08/31 11:17:02;;;;;;;4.67;4.27;;;22.60;99.90;;;;;;5047043;28;20468;-45
2022/08/31 11:19:30;;;;;;;5.93;4.40;;;22.70;99.90;;;;;;5054095;28;20427;-47
2022/08/31 11:22:33;;;;;;;4.37;3.97;;;22.60;99.90;;;;;;5053290;28;20477;-46
2022/08/31 11:25:15;;;;;;;5.00;3.87;;;22.60;99.90;;;;;;5047841;28;20437;-46
2022/08/31 11:27:49;;;;;;;4.03;3.70;;;22.50;99.90;;;;;;5046763;28;20890;-46
2022/08/31 11:30:22;;;;;;;4.40;4.00;;;22.60;99.90;;;;;;5047643;28;20515;-46
2022/08/31 11:32:58;;;;;;;4.33;3.97;;;22.60;99.90;;;;;;5048042;28;20424;-47
2022/08/31 11:35:54;;;;;;;4.30;4.00;;;22.60;99.90;;;;;;5047694;28;20423;-45
2022/08/31 11:38:42;;;;;;;3.97;3.67;;;22.70;99.90;;;;;;5047163;28;20424;-44
2022/08/31 11:41:12;;;;;;;4.50;4.17;;;22.80;99.90;;;;;;5047512;28;20494;-45
2022/08/31 11:43:44;;;;;;;4.27;3.87;;;22.80;99.90;;;;;;5047767;28;20486;-45
2022/08/31 11:46:24;;;;;;;5.13;4.17;;;22.90;99.90;;;;;;5047528;28;20926;-47
2022/08/31 11:48:53;;;;;;;5.40;4.50;;;23.20;99.90;;;;;;5046897;28;20432;-45
2022/08/31 11:51:40;;;;;;;4.60;4.20;;;23.40;99.90;;;;;;5047342;28;20478;-45
2022/08/31 11:54:40;;;;;;;5.23;4.40;;;23.50;99.90;;;;;;5047533;28;20420;-47
2022/08/31 11:57:14;;;;;;;4.60;4.20;;;23.70;99.90;;;;;;5049388;28;20435;-44
2022/08/31 11:59:44;;;;;;;5.13;4.07;;;23.70;99.90;;;;;;5051267;28;20424;-42
2022/08/31 12:02:19;;;;;;;5.00;4.23;;;23.80;99.90;;;;;;5051151;28;20507;-46
2022/08/31 12:04:50;;;;;;;3.77;3.47;;;23.70;99.90;;;;;;5050756;28;20807;-48
2022/08/31 12:07:34;;;;;;;5.73;3.83;;;23.70;99.90;;;;;;5049833;28;20424;-48
2022/08/31 12:10:06;;;;;;;4.57;4.17;;;23.60;99.90;;;;;;5050857;28;20833;-43
2022/08/31 12:13:01;;;;;;;4.33;3.93;;;23.50;99.90;;;;;;5050623;28;20435;-46
2022/08/31 12:15:48;;;;;;;4.70;4.20;;;23.50;99.90;;;;;;5050506;28;20412;-43
2022/08/31 12:18:37;;;;;;;4.63;4.13;;;23.40;99.90;;;;;;5050096;28;20420;-46
2022/08/31 12:24:44;;;;;;;5.10;4.63;;;23.50;99.90;;;;;;5050342;28;20561;-45
2022/08/31 12:27:31;;;;;;;7.43;4.70;;;23.70;99.90;;;;;;5050084;28;20935;-44
2022/08/31 12:30:11;;;;;;;5.30;3.97;;;23.90;99.90;;;;;;5050651;28;20463;-41
2022/08/31 12:32:41;;;;;;;4.40;4.00;;;24.00;99.90;;;;;;5050429;28;20971;-44
2022/08/31 12:35:19;;;;;;;5.87;4.00;;;24.10;99.90;;;;;;5050617;28;20435;-47
2022/08/31 12:37:55;;;;;;;4.73;4.33;;;24.20;99.90;;;;;;5049915;28;20416;-47
2022/08/31 12:40:23;;;;;;;3.90;3.60;;;24.20;99.90;;;;;;5050175;28;20501;-45
2022/08/31 12:43:17;;;;;;;4.93;4.43;;;24.40;99.90;;;;;;5050485;28;20430;-44
2022/08/31 12:45:55;;;;;;;4.50;4.20;;;24.40;99.90;;;;;;5048960;28;20923;-46
2022/08/31 12:48:41;;;;;;;3.40;3.20;;;24.50;99.90;;;;;;5049369;28;20416;-45
2022/08/31 12:51:34;;;;;;;4.17;3.80;;;24.60;99.10;;;;;;5050098;28;20442;-48
2022/08/31 12:54:24;;;;;;;5.53;4.00;;;24.70;99.90;;;;;;5049950;28;20409;-42
2022/08/31 12:57:04;;;;;;;4.67;4.03;;;24.70;99.90;;;;;;5048623;28;20412;-47
2022/08/31 13:00:09;;;;;;;4.80;4.40;;;24.70;99.50;;;;;;5049921;28;20811;-46
2022/08/31 13:02:44;;;;;;;4.00;3.70;;;24.80;99.90;;;;;;5050043;28;20408;-48
2022/08/31 13:05:39;;;;;;;4.00;3.67;;;24.90;98.90;;;;;;5049762;28;20474;-44
2022/08/31 13:08:22;;;;;;;4.43;3.33;;;24.90;98.90;;;;;;5051948;28;20436;-45
2022/08/31 13:10:48;;;;;;;3.70;3.40;;;25.00;98.80;;;;;;5049464;28;20629;-44
2022/08/31 13:13:27;;;;;;;4.20;3.73;;;25.00;98.30;;;;;;5048392;28;20923;-44
2022/08/31 13:16:03;;;;;;;3.43;3.17;;;25.00;98.80;;;;;;5049244;28;20598;-46
2022/08/31 13:18:29;;;;;;;4.03;3.50;;;25.00;98.00;;;;;;5049191;28;20459;-49
2022/08/31 13:21:09;;;;;;;4.20;3.80;;;24.90;97.30;;;;;;5060517;28;20460;-45
2022/08/31 13:23:42;;;;;;;5.50;3.77;;;24.80;97.70;;;;;;5049962;28;20435;-46
2022/08/31 13:26:23;;;;;;;4.30;4.00;;;24.80;98.10;;;;;;5049715;28;20429;-46
2022/08/31 13:28:56;;;;;;;3.90;3.57;;;24.80;99.10;;;;;;5049048;28;20799;-46